This is the latest recevied weather packets stored in our database for station/object KC2G. If no packets are shown the sender has not sent any weather packets the latest 10 day(s).
| Time | Temp. | Humidity | Pressure | Rain* | Wind** | Luminosity | Snow |
|---|---|---|---|---|---|---|---|
| 1777330855 | 17.22° C | 46% | 1021.1 hPa | 0 mm | 0.89 m/s, 78° | - | - |
| 1777329955 | 17.78° C | 44% | 1021 hPa | 0 mm | 0.89 m/s, 107° | - | - |
| 1777329112 | 18.33° C | 41% | 1020.8 hPa | 0 mm | 0.89 m/s, 122° | - | - |
| 1777329056 | 18.33° C | 41% | 1020.8 hPa | 0 mm | 0.89 m/s, 122° | - | - |
| 1777328154 | 18.89° C | 38% | 1020.8 hPa | 0 mm | 0.89 m/s, 91° | - | - |
| 1777327302 | 20° C | 33% | 1020.9 hPa | 0 mm | 0.89 m/s, 117° | - | - |
| 1777327255 | 20° C | 33% | 1020.9 hPa | 0 mm | 0.89 m/s, 117° | - | - |
| 1777326700 | 20° C | 29% | 1020.9 hPa | 0 mm | 0.89 m/s, 83° | - | - |
| 1777326355 | 20° C | 30% | 1020.9 hPa | 0 mm | 0.89 m/s, 98° | - | - |
| 1777325455 | 20° C | 29% | 1020.9 hPa | 0 mm | 0.89 m/s, 83° | - | - |
| 1777324770 | 20° C | 32% | 1021 hPa | 0 mm | 0.89 m/s, 79° | - | - |
| 1777324556 | 20° C | 30% | 1021 hPa | 0 mm | 0.89 m/s, 88° | - | - |
| 1777323656 | 20° C | 32% | 1021 hPa | 0 mm | 0.89 m/s, 79° | - | - |
| 1777322754 | 20° C | 34% | 1021.2 hPa | 0 mm | 0.45 m/s, 89° | - | - |
| 1777321855 | 20° C | 34% | 1020.8 hPa | 0 mm | 0.89 m/s, 72° | - | - |
| 1777320955 | 20° C | 37% | 1020.9 hPa | 0 mm | 1.34 m/s, 76° | - | - |
| 1777320055 | 20° C | 36% | 1020.7 hPa | 0 mm | 0.45 m/s, 105° | - | - |
| 1777319155 | 21.11° C | 33% | 1020.7 hPa | 0 mm | 1.34 m/s, 60° | - | - |
| 1777319000 | 21.11° C | 38% | 1020.8 hPa | 0 mm | 0.89 m/s, 73° | - | - |
| 1777318256 | 21.11° C | 37% | 1020.7 hPa | 0 mm | 0.89 m/s, 111° | - | - |
| 1777317354 | 21.11° C | 38% | 1020.8 hPa | 0 mm | 0.89 m/s, 73° | - | - |
| 1777316455 | 20.56° C | 39% | 1020.9 hPa | 0 mm | 0.89 m/s, 47° | - | - |
| 1777315554 | 20.56° C | 37% | 1021.2 hPa | 0 mm | 1.34 m/s, 91° | - | - |
| 1777315167 | 20.56° C | 39% | 1021.5 hPa | 0 mm | 0.89 m/s, 37° | - | - |
| 1777314655 | 21.11° C | 37% | 1021.2 hPa | 0 mm | 1.34 m/s, 66° | - | - |
* Rain latest hour (hover to see other rain measurements)
** Current wind speed in m/s (hover to see current wind gust speed)